createdAt,value
2017-05-14T18:43:00.599Z,13.60
2017-05-14T18:45:28.807Z,13.50
2017-05-14T18:47:57.020Z,13.40
2017-05-14T18:50:25.221Z,13.30
2017-05-14T18:52:54.167Z,13.30
2017-05-14T18:55:22.379Z,13.20
2017-05-14T18:57:50.579Z,13.10
2017-05-14T19:00:19.548Z,12.90
2017-05-14T19:02:47.767Z,12.90
2017-05-14T19:05:15.972Z,12.90
2017-05-14T19:07:44.195Z,12.80
2017-05-14T19:10:13.144Z,12.70
2017-05-14T19:12:41.361Z,12.80
2017-05-14T19:15:10.315Z,12.70
2017-05-14T19:17:38.530Z,12.90
2017-05-14T19:20:07.484Z,12.90
2017-05-14T19:22:35.695Z,13.00
2017-05-14T19:25:04.643Z,13.00
2017-05-14T19:27:32.846Z,12.90
2017-05-14T19:30:01.055Z,12.90
2017-05-14T19:32:29.256Z,12.80
2017-05-14T19:34:57.467Z,12.80
2017-05-14T19:37:25.677Z,13.00
2017-05-14T19:39:53.883Z,13.20
2017-05-14T19:42:22.099Z,13.40
2017-05-14T19:44:51.050Z,13.40
2017-05-14T19:47:19.261Z,13.50
2017-05-14T19:49:48.207Z,13.60
2017-05-14T19:52:17.072Z,13.70
2017-05-14T19:54:45.267Z,13.80
2017-05-14T19:57:13.488Z,13.90
2017-05-14T19:59:41.708Z,13.80
2017-05-14T20:02:09.922Z,13.80
2017-05-14T20:04:38.145Z,13.80
2017-05-14T20:07:06.343Z,13.70
2017-05-14T20:09:34.556Z,13.30
2017-05-14T20:12:02.756Z,13.10
2017-05-14T20:14:31.738Z,13.00
2017-05-14T20:17:00.689Z,13.00
2017-05-14T20:19:28.936Z,13.00
2017-05-14T20:21:57.147Z,12.90
2017-05-14T20:24:25.593Z,13.00
2017-05-14T20:26:53.808Z,13.20
2017-05-14T20:29:22.002Z,13.40
2017-05-14T20:31:50.958Z,13.40
2017-05-14T20:34:19.174Z,13.60
2017-05-14T20:36:48.141Z,13.60
2017-05-14T20:39:16.340Z,13.60
2017-05-14T20:41:45.296Z,13.50
2017-05-14T20:44:13.511Z,13.30
2017-05-14T20:46:42.447Z,13.20
2017-05-14T20:49:10.663Z,13.20
2017-05-14T20:51:38.854Z,13.30
2017-05-14T20:54:07.814Z,13.20
2017-05-14T20:56:36.028Z,13.10
2017-05-14T20:59:04.979Z,13.10
2017-05-14T21:01:33.191Z,13.10
2017-05-14T21:04:02.136Z,13.00
2017-05-14T21:06:30.344Z,13.00
2017-05-14T21:08:59.304Z,13.10
2017-05-14T21:11:27.539Z,13.10
2017-05-14T21:13:55.756Z,13.10
2017-05-14T21:16:24.909Z,13.10
2017-05-14T21:18:53.121Z,12.90
2017-05-14T21:21:21.323Z,12.70
2017-05-14T21:23:49.527Z,12.20
2017-05-14T21:26:17.724Z,11.90
2017-05-14T21:28:45.944Z,11.70
2017-05-14T21:31:14.149Z,11.60
2017-05-14T21:33:42.356Z,11.60
2017-05-14T21:36:10.570Z,11.80
2017-05-14T21:38:38.772Z,11.80
2017-05-14T21:41:07.747Z,11.80
2017-05-14T21:43:36.696Z,11.90
2017-05-14T21:46:04.933Z,11.80
2017-05-14T21:48:33.879Z,11.70
2017-05-14T21:51:02.083Z,11.60
2017-05-14T21:53:31.039Z,11.60
2017-05-14T21:55:59.243Z,11.60
2017-05-14T21:58:27.502Z,11.40
2017-05-14T22:00:55.715Z,11.40
2017-05-14T22:03:23.933Z,11.40
2017-05-14T22:05:52.131Z,11.40
2017-05-14T22:08:20.369Z,11.30
2017-05-14T22:10:48.571Z,11.30
2017-05-14T22:13:17.639Z,11.00
2017-05-14T22:15:45.859Z,10.80
2017-05-14T22:18:14.063Z,10.70
2017-05-14T22:20:42.278Z,10.60
2017-05-14T22:23:10.491Z,10.60
2017-05-14T22:25:38.707Z,10.50
2017-05-14T22:28:06.911Z,10.40
2017-05-14T22:30:35.111Z,10.30
2017-05-14T22:33:04.080Z,10.20
2017-05-14T22:35:32.284Z,10.10
2017-05-14T22:38:01.242Z,10.00
2017-05-14T22:40:29.443Z,9.90
2017-05-14T22:42:57.659Z,9.80
2017-05-14T22:45:25.858Z,9.70
2017-05-14T22:47:54.044Z,9.60
2017-05-14T22:50:22.247Z,9.70
2017-05-14T22:52:51.187Z,9.90
2017-05-14T22:55:19.395Z,9.90
2017-05-14T22:57:47.601Z,10.00
2017-05-14T23:00:16.551Z,10.10
2017-05-14T23:02:44.839Z,10.20
2017-05-14T23:05:13.060Z,10.30
2017-05-14T23:07:41.267Z,10.30
2017-05-14T23:10:09.492Z,10.20
2017-05-14T23:12:39.551Z,10.10
2017-05-14T23:15:07.755Z,10.00
2017-05-14T23:17:35.963Z,10.00
2017-05-14T23:20:04.192Z,10.00
2017-05-14T23:22:32.391Z,9.90
2017-05-14T23:25:01.863Z,9.80
2017-05-14T23:27:30.076Z,9.70
2017-05-14T23:29:59.015Z,9.70
2017-05-14T23:32:27.224Z,9.70
2017-05-14T23:34:55.427Z,9.60
2017-05-14T23:37:24.395Z,9.60
2017-05-14T23:39:52.591Z,9.70
2017-05-14T23:42:21.534Z,9.60
2017-05-14T23:44:49.743Z,9.50
2017-05-14T23:47:18.587Z,9.30
2017-05-14T23:49:46.795Z,9.20
2017-05-14T23:52:14.987Z,9.10
2017-05-14T23:54:43.945Z,9.10
2017-05-14T23:57:12.157Z,9.00
2017-05-14T23:59:40.348Z,9.10
